Time;durP1;ratioP1;P1;durP2;ratioP2;P2;SDS_P1;SDS_P2;PMS_P1;PMS_P2;Temp;Humidity;BMP_temperature;BMP_pressure;BME280_temperature;BME280_humidity;BME280_pressure;Samples;Min_cycle;Max_cycle;Signal;HPM_P1;HPM_P2
2022/06/27 00:01:31;;;;;;;;;;;;;;;24.62;48.05;101576.44;5014178;28;20000;-68
2022/06/27 00:03:57;;;;;;;;;;;;;;;24.56;47.91;101583.13;5025893;28;20301;-69
2022/06/27 00:06:22;;;;;;;;;;;;;;;24.65;48.03;101592.34;5032542;28;20054;-69
2022/06/27 00:08:48;;;;;;;;;;;;;;;24.45;48.22;101593.50;5020942;28;19960;-69
2022/06/27 00:11:14;;;;;;;;;;;;;;;24.50;48.71;101596.16;5022359;28;19926;-69
2022/06/27 00:13:39;;;;;;;;;;;;;;;24.49;48.35;101600.00;5012085;28;20433;-69
2022/06/27 00:16:04;;;;;;;;;;;;;;;24.50;48.52;101590.66;5019901;28;20262;-68
2022/06/27 00:18:29;;;;;;;;;;;;;;;24.43;48.95;101591.03;5024369;28;20415;-68
2022/06/27 00:20:55;;;;;;;;;;;;;;;24.40;48.80;101586.16;5021801;28;19965;-68
2022/06/27 00:23:20;;;;;;;;;;;;;;;24.41;48.58;101593.25;5019887;28;19971;-69
2022/06/27 00:25:45;;;;;;;;;;;;;;;24.48;48.84;101590.16;5020082;28;19921;-68
2022/06/27 00:28:11;;;;;;;;;;;;;;;24.41;48.73;101600.72;5019808;28;19928;-68
2022/06/27 00:30:36;;;;;;;;;;;;;;;24.46;48.82;101595.13;5019586;28;19924;-70
2022/06/27 00:33:01;;;;;;;;;;;;;;;24.48;48.88;101606.63;5020422;28;19924;-68
2022/06/27 00:35:27;;;;;;;;;;;;;;;24.51;48.71;101589.53;5023349;28;19921;-69
2022/06/27 00:37:52;;;;;;;;;;;;;;;24.50;49.13;101592.59;5024847;28;20376;-68
2022/06/27 00:40:17;;;;;;;;;;;;;;;24.50;48.84;101600.81;5023114;28;19936;-68
2022/06/27 00:42:42;;;;;;;;;;;;;;;24.56;48.86;101603.19;5020543;28;19928;-69
2022/06/27 00:45:08;;;;;;;;;;;;;;;24.55;48.40;101604.31;5024326;28;19925;-68
2022/06/27 00:47:33;;;;;;;;;;;;;;;24.47;48.78;101602.22;5013594;28;20409;-68
2022/06/27 00:49:59;;;;;;;;;;;;;;;24.52;48.22;101613.16;5014264;28;19928;-69
2022/06/27 00:52:24;;;;;;;;;;;;;;;24.80;47.24;101614.94;5016941;28;19928;-69
2022/06/27 00:54:50;;;;;;;;;;;;;;;24.63;47.79;101620.13;5015435;28;20476;-73
2022/06/27 00:57:16;;;;;;;;;;;;;;;24.62;48.29;101625.91;5021859;28;19924;-72
2022/06/27 00:59:42;;;;;;;;;;;;;;;24.57;49.03;101628.75;5025920;28;19929;-73
2022/06/27 01:02:07;;;;;;;;;;;;;;;24.64;47.72;101626.44;5012748;28;19925;-73
2022/06/27 01:04:34;;;;;;;;;;;;;;;24.81;47.53;101629.47;5029142;28;20448;-73
2022/06/27 01:06:59;;;;;;;;;;;;;;;24.96;47.03;101616.28;5017851;28;20492;-72
2022/06/27 01:09:24;;;;;;;;;;;;;;;25.02;46.39;101609.56;5013721;28;19925;-74
2022/06/27 01:11:50;;;;;;;;;;;;;;;24.92;46.24;101620.75;5018062;28;20374;-74
2022/06/27 01:14:16;;;;;;;;;;;;;;;25.16;46.12;101626.91;5018519;28;20386;-73
2022/06/27 01:16:41;;;;;;;;;;;;;;;24.88;47.17;101635.41;5013934;28;19936;-73
2022/06/27 01:19:10;;;;;;;;;;;;;;;24.74;47.63;101632.63;5023289;28;19922;-73
2022/06/27 01:21:39;;;;;;;;;;;;;;;24.85;47.48;101633.25;5022297;28;19921;-73
2022/06/27 01:24:04;;;;;;;;;;;;;;;24.77;47.32;101645.75;5019142;28;20008;-73
2022/06/27 01:26:29;;;;;;;;;;;;;;;24.32;48.78;101655.50;5024320;28;20012;-73
2022/06/27 01:28:55;;;;;;;;;;;;;;;24.49;48.68;101641.22;5018209;28;19944;-72
2022/06/27 01:31:20;;;;;;;;;;;;;;;24.93;47.84;101646.31;5018932;28;19968;-73
2022/06/27 01:33:45;;;;;;;;;;;;;;;24.63;48.35;101646.81;5012904;28;19918;-73
2022/06/27 01:38:54;;;;;;;;;;;;;;;24.04;50.17;101648.19;5023901;28;19931;-72
2022/06/27 01:41:20;;;;;;;;;;;;;;;24.19;49.95;101644.44;5019115;28;20386;-72
2022/06/27 01:43:47;;;;;;;;;;;;;;;24.30;50.16;101637.69;5018584;28;19944;-72
2022/06/27 01:46:12;;;;;;;;;;;;;;;24.31;49.92;101633.84;5021581;28;19925;-72
2022/06/27 01:48:38;;;;;;;;;;;;;;;24.56;49.19;101633.44;5023904;28;19932;-72
2022/06/27 01:51:03;;;;;;;;;;;;;;;24.37;49.98;101640.88;5022976;28;19920;-74
2022/06/27 01:53:29;;;;;;;;;;;;;;;24.35;50.10;101632.91;5019313;28;19921;-73
2022/06/27 01:55:54;;;;;;;;;;;;;;;24.47;49.62;101620.69;5021813;28;19921;-73
2022/06/27 01:58:19;;;;;;;;;;;;;;;24.46;49.95;101611.59;5018832;28;19980;-73
2022/06/27 02:00:45;;;;;;;;;;;;;;;24.13;50.76;101608.00;5024532;28;19918;-73
2022/06/27 02:03:10;;;;;;;;;;;;;;;24.11;51.42;101607.47;5019195;28;19945;-72
2022/06/27 02:05:35;;;;;;;;;;;;;;;24.21;50.75;101607.34;5018561;28;20024;-73
2022/06/27 02:08:02;;;;;;;;;;;;;;;24.10;51.17;101605.81;5019075;28;19929;-74
2022/06/27 02:10:27;;;;;;;;;;;;;;;24.27;50.58;101602.56;5017645;28;20270;-73
2022/06/27 02:12:53;;;;;;;;;;;;;;;24.29;50.25;101603.88;5018428;28;19932;-72
2022/06/27 02:15:18;;;;;;;;;;;;;;;24.23;50.72;101601.53;5011596;28;19925;-73
2022/06/27 02:17:43;;;;;;;;;;;;;;;24.31;50.36;101612.66;5020498;28;19921;-73
2022/06/27 02:20:09;;;;;;;;;;;;;;;24.33;50.55;101604.91;5017925;28;19921;-72
2022/06/27 02:22:37;;;;;;;;;;;;;;;24.41;50.18;101592.47;5019843;28;19932;-73
2022/06/27 02:25:03;;;;;;;;;;;;;;;24.37;50.28;101583.19;5019617;28;19921;-74
2022/06/27 02:27:29;;;;;;;;;;;;;;;24.33;50.66;101595.88;5021318;28;19928;-73
2022/06/27 02:29:54;;;;;;;;;;;;;;;24.38;50.60;101582.06;5017551;28;19921;-72
2022/06/27 02:32:20;;;;;;;;;;;;;;;24.34;50.62;101559.88;5014815;28;20401;-73
2022/06/27 02:34:47;;;;;;;;;;;;;;;24.31;50.80;101563.19;5018775;28;20285;-73
2022/06/27 02:37:12;;;;;;;;;;;;;;;24.26;51.24;101563.28;5023764;28;19921;-73
2022/06/27 02:39:40;;;;;;;;;;;;;;;24.42;51.01;101564.69;5018412;28;19928;-73
2022/06/27 02:42:06;;;;;;;;;;;;;;;24.31;51.18;101565.16;5024290;28;19933;-73
2022/06/27 02:44:33;;;;;;;;;;;;;;;24.37;51.39;101558.47;5017598;28;19928;-73
2022/06/27 02:46:59;;;;;;;;;;;;;;;24.33;51.64;101555.47;5016005;28;19925;-71
2022/06/27 02:49:24;;;;;;;;;;;;;;;24.30;50.71;101550.59;5024477;28;19921;-72
2022/06/27 02:51:55;;;;;;;;;;;;;;;24.20;51.17;101569.97;5027593;28;20647;-73
2022/06/27 02:54:26;;;;;;;;;;;;;;;24.40;50.52;101575.16;5013861;28;20397;-73
2022/06/27 02:56:55;;;;;;;;;;;;;;;24.38;50.81;101577.38;5025308;28;19933;-73
2022/06/27 02:59:24;;;;;;;;;;;;;;;24.40;50.37;101577.91;5024836;28;19921;-73
2022/06/27 03:01:49;;;;;;;;;;;;;;;24.50;49.46;101568.66;5021051;28;19921;-73
2022/06/27 03:04:14;;;;;;;;;;;;;;;24.23;50.31;101558.41;5027626;28;19921;-73
2022/06/27 03:06:40;;;;;;;;;;;;;;;24.42;49.13;101558.38;5021459;28;19980;-73
2022/06/27 03:09:05;;;;;;;;;;;;;;;24.36;49.39;101565.06;5022226;28;19957;-73
2022/06/27 03:11:31;;;;;;;;;;;;;;;24.35;49.92;101574.44;5018354;28;19922;-72
2022/06/27 03:13:56;;;;;;;;;;;;;;;24.46;49.38;101573.13;5021095;28;20276;-73
2022/06/27 03:16:22;;;;;;;;;;;;;;;24.53;48.70;101572.75;5018943;28;19975;-73
2022/06/27 03:18:48;;;;;;;;;;;;;;;24.39;49.19;101567.22;5025513;28;19927;-72
2022/06/27 03:21:17;;;;;;;;;;;;;;;24.49;48.93;101568.97;5026317;28;19925;-72
2022/06/27 03:23:43;;;;;;;;;;;;;;;24.59;49.09;101560.56;5027052;28;19925;-72
2022/06/27 03:26:08;;;;;;;;;;;;;;;24.43;49.41;101562.75;5026249;28;20327;-73
2022/06/27 03:28:33;;;;;;;;;;;;;;;24.47;48.83;101562.97;5023621;28;19925;-73
2022/06/27 03:30:59;;;;;;;;;;;;;;;24.23;49.93;101560.31;5022650;28;19921;-73
2022/06/27 03:33:24;;;;;;;;;;;;;;;24.20;50.18;101561.72;5021117;28;19917;-73
2022/06/27 03:35:49;;;;;;;;;;;;;;;24.13;50.70;101549.50;5026891;28;19925;-72
2022/06/27 03:38:14;;;;;;;;;;;;;;;24.24;50.71;101548.22;5021463;28;20004;-72
2022/06/27 03:40:40;;;;;;;;;;;;;;;24.17;51.03;101542.28;5018806;28;19929;-73
2022/06/27 03:43:05;;;;;;;;;;;;;;;24.37;50.71;101542.75;5022531;28;19926;-73
2022/06/27 03:45:31;;;;;;;;;;;;;;;24.49;50.40;101539.53;5021246;28;19944;-73
2022/06/27 03:47:57;;;;;;;;;;;;;;;24.38;50.19;101538.91;5021780;28;20008;-73
2022/06/27 03:50:23;;;;;;;;;;;;;;;24.66;50.14;101542.56;5019546;28;19928;-73
2022/06/27 03:52:49;;;;;;;;;;;;;;;24.71;49.79;101536.13;5025175;28;20287;-71
2022/06/27 03:55:14;;;;;;;;;;;;;;;24.45;50.37;101535.78;5020610;28;19939;-73
2022/06/27 03:58:06;;;;;;;;;;;;;;;24.68;49.60;101534.00;5014234;28;19952;-73
2022/06/27 04:00:32;;;;;;;;;;;;;;;24.67;49.53;101532.38;5016870;28;19914;-71
2022/06/27 04:02:57;;;;;;;;;;;;;;;24.74;49.63;101528.16;5013129;28;20261;-73
2022/06/27 04:05:23;;;;;;;;;;;;;;;24.76;49.64;101533.34;5024954;28;19927;-72
2022/06/27 04:07:48;;;;;;;;;;;;;;;24.68;49.54;101520.25;5025480;28;19925;-73
2022/06/27 04:10:13;;;;;;;;;;;;;;;24.76;49.30;101525.09;5030665;28;19980;-71
2022/06/27 04:12:40;;;;;;;;;;;;;;;24.72;49.38;101508.41;5013514;28;19917;-73
2022/06/27 04:15:06;;;;;;;;;;;;;;;24.82;49.51;101515.63;5026882;28;19917;-73
2022/06/27 04:17:32;;;;;;;;;;;;;;;24.78;49.68;101520.94;5021006;28;19948;-72
2022/06/27 04:19:57;;;;;;;;;;;;;;;24.60;50.16;101513.53;5019749;28;20336;-72
2022/06/27 04:22:22;;;;;;;;;;;;;;;24.69;49.48;101516.38;5020353;28;19936;-73
2022/06/27 04:24:48;;;;;;;;;;;;;;;24.78;49.26;101518.19;5026157;28;19967;-73
2022/06/27 04:27:13;;;;;;;;;;;;;;;24.73;49.52;101514.69;5019831;28;19971;-71
2022/06/27 04:29:39;;;;;;;;;;;;;;;24.60;50.12;101512.72;5018954;28;20389;-73
2022/06/27 04:32:07;;;;;;;;;;;;;;;24.73;49.72;101525.69;5020356;28;20428;-72
2022/06/27 04:34:33;;;;;;;;;;;;;;;24.72;49.97;101533.13;5023524;28;19944;-73
2022/06/27 04:36:59;;;;;;;;;;;;;;;24.71;50.08;101541.63;5018781;28;20357;-72
2022/06/27 04:39:25;;;;;;;;;;;;;;;24.96;49.10;101535.72;5017139;28;19918;-71
2022/06/27 04:41:50;;;;;;;;;;;;;;;25.05;49.24;101525.63;5023519;28;20483;-72
2022/06/27 04:44:18;;;;;;;;;;;;;;;25.09;48.76;101523.91;5021397;28;20033;-74
2022/06/27 04:46:43;;;;;;;;;;;;;;;25.02;49.16;101540.81;5024654;28;19927;-73
2022/06/27 04:49:09;;;;;;;;;;;;;;;24.95;49.48;101547.81;5017780;28;19948;-73
2022/06/27 04:51:35;;;;;;;;;;;;;;;25.07;49.33;101550.91;5018834;28;19971;-73
2022/06/27 04:54:01;;;;;;;;;;;;;;;25.08;49.17;101556.09;5019599;28;19917;-74
2022/06/27 04:56:29;;;;;;;;;;;;;;;25.10;49.09;101540.09;5018417;28;19921;-72
2022/06/27 04:58:55;;;;;;;;;;;;;;;25.02;49.24;101538.06;5018959;28;19925;-72
2022/06/27 05:01:20;;;;;;;;;;;;;;;25.17;48.85;101523.19;5019084;28;19928;-73
2022/06/27 05:03:45;;;;;;;;;;;;;;;25.41;47.95;101523.84;5022235;28;19925;-73
2022/06/27 05:06:10;;;;;;;;;;;;;;;25.32;48.25;101533.09;5022940;28;19921;-72
2022/06/27 05:08:39;;;;;;;;;;;;;;;25.30;47.86;101533.38;5020969;28;19925;-72
2022/06/27 05:11:04;;;;;;;;;;;;;;;25.32;46.93;101541.34;5022991;28;19921;-72
2022/06/27 05:13:29;;;;;;;;;;;;;;;25.51;46.70;101533.81;5024474;28;20004;-74
2022/06/27 05:15:55;;;;;;;;;;;;;;;25.54;46.65;101525.75;5023928;28;19976;-72
2022/06/27 05:18:20;;;;;;;;;;;;;;;25.09;47.32;101521.97;5019352;28;19917;-71
2022/06/27 05:20:46;;;;;;;;;;;;;;;24.97;47.66;101510.66;5019307;28;19963;-73
2022/06/27 05:23:11;;;;;;;;;;;;;;;25.19;47.38;101510.78;5024812;28;19929;-73
2022/06/27 05:25:36;;;;;;;;;;;;;;;25.08;47.66;101506.56;5017728;28;19922;-72
2022/06/27 05:28:03;;;;;;;;;;;;;;;25.40;47.34;101513.09;5022333;28;19925;-74
2022/06/27 05:30:30;;;;;;;;;;;;;;;25.34;47.44;101512.38;5020365;28;19922;-72
2022/06/27 05:32:55;;;;;;;;;;;;;;;25.28;47.50;101519.09;5018949;28;19933;-72
2022/06/27 05:35:21;;;;;;;;;;;;;;;25.27;47.98;101512.81;5018473;28;20416;-73
2022/06/27 05:37:47;;;;;;;;;;;;;;;25.38;47.88;101507.06;5029242;28;19924;-73
2022/06/27 05:40:12;;;;;;;;;;;;;;;25.28;47.69;101511.66;5035692;28;20401;-73
2022/06/27 05:42:38;;;;;;;;;;;;;;;25.57;47.43;101505.84;5035680;28;19921;-74
2022/06/27 05:45:03;;;;;;;;;;;;;;;25.40;47.90;101507.59;5035915;28;20007;-73
2022/06/27 05:47:30;;;;;;;;;;;;;;;25.34;47.73;101492.28;5037051;28;19925;-72
2022/06/27 05:49:56;;;;;;;;;;;;;;;25.13;48.21;101483.66;5025594;28;19921;-72
2022/06/27 05:52:22;;;;;;;;;;;;;;;25.42;47.50;101478.66;5017997;28;19928;-74
2022/06/27 05:54:48;;;;;;;;;;;;;;;25.56;47.49;101478.63;5019303;28;19921;-73
2022/06/27 05:57:14;;;;;;;;;;;;;;;25.47;47.75;101494.25;5015426;28;19913;-73
2022/06/27 05:59:40;;;;;;;;;;;;;;;25.57;47.81;101505.84;5019928;28;19928;-74
2022/06/27 06:02:05;;;;;;;;;;;;;;;25.54;47.84;101509.22;5020987;28;19948;-73
2022/06/27 06:04:30;;;;;;;;;;;;;;;25.55;47.53;101499.81;5017629;28;19928;-75
2022/06/27 06:06:55;;;;;;;;;;;;;;;25.60;47.95;101493.41;5018528;28;19936;-74
2022/06/27 06:09:21;;;;;;;;;;;;;;;25.33;48.77;101483.25;5018002;28;20318;-74
2022/06/27 06:11:48;;;;;;;;;;;;;;;25.38;48.40;101493.31;5032983;28;19921;-73
2022/06/27 06:14:15;;;;;;;;;;;;;;;25.27;48.62;101500.97;5035683;28;20031;-74
2022/06/27 06:16:40;;;;;;;;;;;;;;;24.88;49.79;101511.69;5032345;28;20021;-73
2022/06/27 06:19:05;;;;;;;;;;;;;;;25.38;48.47;101496.06;5015522;28;20024;-73
2022/06/27 06:21:31;;;;;;;;;;;;;;;25.42;48.57;101497.09;5017811;28;19921;-75
2022/06/27 06:23:57;;;;;;;;;;;;;;;25.57;48.12;101525.09;5012163;28;19933;-73
2022/06/27 06:26:23;;;;;;;;;;;;;;;25.47;48.35;101549.31;5017915;28;19925;-75
2022/06/27 06:28:49;;;;;;;;;;;;;;;25.12;49.31;101595.63;5020495;28;19932;-73
2022/06/27 06:31:21;;;;;;;;;;;;;;;25.25;48.64;101602.28;5021017;28;19921;-73
2022/06/27 06:33:47;;;;;;;;;;;;;;;25.41;48.18;101580.81;5023464;28;20008;-73
2022/06/27 06:36:12;;;;;;;;;;;;;;;25.62;47.89;101585.59;5021539;28;20013;-73
2022/06/27 06:38:38;;;;;;;;;;;;;;;25.40;48.83;101601.16;5031633;28;19975;-73
2022/06/27 06:41:03;;;;;;;;;;;;;;;25.63;48.27;101606.47;5025395;28;19975;-72
2022/06/27 06:43:28;;;;;;;;;;;;;;;25.84;47.17;101612.38;5033070;28;19956;-73
2022/06/27 06:45:54;;;;;;;;;;;;;;;25.88;47.19;101610.63;5025297;28;19975;-74
2022/06/27 06:48:19;;;;;;;;;;;;;;;25.89;47.33;101620.50;5025823;28;19917;-75
2022/06/27 06:50:45;;;;;;;;;;;;;;;25.85;47.27;101614.00;5029118;28;19928;-73
2022/06/27 06:53:10;;;;;;;;;;;;;;;25.85;47.03;101600.22;5023092;28;19922;-72
2022/06/27 06:55:36;;;;;;;;;;;;;;;26.03;46.45;101611.13;5029760;28;20460;-73
2022/06/27 06:58:01;;;;;;;;;;;;;;;25.86;46.74;101613.72;5025049;28;19921;-74
2022/06/27 07:00:27;;;;;;;;;;;;;;;25.91;46.73;101618.28;5028170;28;19963;-73
2022/06/27 07:02:52;;;;;;;;;;;;;;;25.77;47.34;101614.72;5036497;28;19937;-73
2022/06/27 07:05:19;;;;;;;;;;;;;;;25.72;47.48;101618.41;5037518;28;19932;-72
2022/06/27 07:07:44;;;;;;;;;;;;;;;25.67;47.03;101629.50;5031779;28;19921;-74
2022/06/27 07:10:11;;;;;;;;;;;;;;;25.72;46.74;101620.34;5035081;28;19921;-73
2022/06/27 07:12:36;;;;;;;;;;;;;;;25.19;48.56;101620.00;5032380;28;19964;-73
2022/06/27 07:15:03;;;;;;;;;;;;;;;25.26;48.08;101612.16;5027744;28;20539;-75
2022/06/27 07:17:29;;;;;;;;;;;;;;;25.34;48.20;101616.13;5028893;28;20119;-74
2022/06/27 07:19:54;;;;;;;;;;;;;;;25.49;47.67;101602.94;5028234;28;20011;-74
2022/06/27 07:22:20;;;;;;;;;;;;;;;25.47;48.23;101613.44;5031165;28;19932;-75
2022/06/27 07:24:47;;;;;;;;;;;;;;;25.60;47.74;101598.00;5029445;28;19924;-75
2022/06/27 07:27:13;;;;;;;;;;;;;;;25.77;47.67;101573.41;5031541;28;20000;-75
2022/06/27 07:29:39;;;;;;;;;;;;;;;25.62;48.51;101565.50;5027231;28;20015;-73
2022/06/27 07:32:05;;;;;;;;;;;;;;;25.45;48.02;101554.31;5033088;28;19988;-74
2022/06/27 07:34:30;;;;;;;;;;;;;;;25.66;47.55;101556.31;5026739;28;19921;-74
2022/06/27 07:36:56;;;;;;;;;;;;;;;25.78;47.31;101564.88;5020906;28;19921;-74
2022/06/27 07:39:21;;;;;;;;;;;;;;;26.03;47.06;101566.22;5032602;28;19917;-74
2022/06/27 07:41:49;;;;;;;;;;;;;;;25.88;47.39;101553.63;5021774;28;19921;-73
2022/06/27 07:44:15;;;;;;;;;;;;;;;25.88;47.18;101530.75;5035825;28;20281;-74
2022/06/27 07:46:40;;;;;;;;;;;;;;;26.18;46.72;101526.50;5034569;28;19928;-73
2022/06/27 07:49:05;;;;;;;;;;;;;;;26.01;47.46;101540.91;5023723;28;20351;-73
2022/06/27 07:51:31;;;;;;;;;;;;;;;26.13;47.16;101540.41;5032977;28;20350;-74
2022/06/27 07:53:56;;;;;;;;;;;;;;;26.06;47.96;101551.88;5032048;28;19921;-74
2022/06/27 07:56:22;;;;;;;;;;;;;;;25.80;47.38;101556.28;5030678;28;19924;-75
2022/06/27 07:58:48;;;;;;;;;;;;;;;25.44;48.13;101549.91;5032314;28;19929;-73
2022/06/27 08:01:14;;;;;;;;;;;;;;;25.86;47.50;101535.78;5034194;28;19974;-74
2022/06/27 08:03:39;;;;;;;;;;;;;;;26.03;46.87;101541.41;5031557;28;20424;-73
2022/06/27 08:06:31;;;;;;;;;;;;;;;26.14;46.50;101544.78;5035158;28;19917;-74
2022/06/27 08:08:57;;;;;;;;;;;;;;;26.28;46.39;101567.59;5026085;28;19952;-74
2022/06/27 08:11:27;;;;;;;;;;;;;;;26.19;46.30;101577.72;5020125;28;19921;-74
2022/06/27 08:13:54;;;;;;;;;;;;;;;26.18;46.76;101584.38;5031435;28;19921;-73
2022/06/27 08:16:20;;;;;;;;;;;;;;;25.98;46.94;101591.94;5031685;28;19948;-74
2022/06/27 08:18:50;;;;;;;;;;;;;;;26.01;47.01;101601.53;5028228;28;19967;-73
2022/06/27 08:21:25;;;;;;;;;;;;;;;25.74;47.25;101607.91;5030969;28;19925;-74
2022/06/27 08:23:51;;;;;;;;;;;;;;;25.89;46.70;101598.47;5030781;28;20864;-73
2022/06/27 08:26:17;;;;;;;;;;;;;;;26.04;46.74;101606.44;5032441;28;19921;-73
2022/06/27 08:28:44;;;;;;;;;;;;;;;26.17;46.97;101589.06;5034786;28;19990;-72
2022/06/27 08:31:10;;;;;;;;;;;;;;;26.29;46.60;101592.09;5030100;28;20344;-72
2022/06/27 08:33:36;;;;;;;;;;;;;;;26.44;46.58;101599.97;5017737;28;19917;-71
2022/06/27 08:36:02;;;;;;;;;;;;;;;26.43;46.29;101611.31;5026281;28;19932;-72
2022/06/27 08:38:29;;;;;;;;;;;;;;;26.41;46.72;101616.34;5029600;28;19929;-72
2022/06/27 08:40:55;;;;;;;;;;;;;;;26.52;46.23;101603.94;5030243;28;19925;-71
2022/06/27 08:43:21;;;;;;;;;;;;;;;26.55;46.23;101600.56;5029952;28;20418;-73
2022/06/27 08:45:47;;;;;;;;;;;;;;;26.50;46.36;101628.25;5024870;28;20373;-73
2022/06/27 08:48:13;;;;;;;;;;;;;;;26.04;47.54;101648.53;5030778;28;20284;-72
2022/06/27 08:50:39;;;;;;;;;;;;;;;26.40;46.92;101651.34;5030805;28;19925;-71
2022/06/27 08:53:04;;;;;;;;;;;;;;;25.04;50.27;101645.03;5030773;28;19976;-72
2022/06/27 08:55:31;;;;;;;;;;;;;;;26.00;47.66;101655.78;5025728;28;20381;-74
2022/06/27 08:57:59;;;;;;;;;;;;;;;26.27;46.71;101654.97;5027363;28;19975;-73
2022/06/27 09:00:25;;;;;;;;;;;;;;;26.20;47.03;101651.81;5026169;28;19978;-73
2022/06/27 09:02:50;;;;;;;;;;;;;;;26.33;46.37;101667.50;5025869;28;19929;-73
2022/06/27 09:05:16;;;;;;;;;;;;;;;26.06;46.88;101670.34;5025258;28;19921;-73
2022/06/27 09:07:46;;;;;;;;;;;;;;;26.45;46.32;101678.81;5027800;28;20002;-73
2022/06/27 09:10:27;;;;;;;;;;;;;;;26.87;45.18;101663.75;5031242;28;20224;-73
2022/06/27 09:12:56;;;;;;;;;;;;;;;27.08;44.60;101656.59;5032180;28;19921;-72
2022/06/27 09:15:26;;;;;;;;;;;;;;;27.47;43.38;101673.25;5031022;28;20004;-73
2022/06/27 09:18:05;;;;;;;;;;;;;;;27.25;44.12;101664.16;5033125;28;19921;-72
2022/06/27 09:20:50;;;;;;;;;;;;;;;27.48;44.46;101662.97;5029548;28;19924;-74
2022/06/27 09:23:32;;;;;;;;;;;;;;;27.32;44.15;101678.31;5029859;28;20198;-74
2022/06/27 09:25:58;;;;;;;;;;;;;;;27.55;43.36;101671.63;5027478;28;19943;-72
2022/06/27 09:28:35;;;;;;;;;;;;;;;27.68;42.71;101679.00;5010857;28;19921;-73
2022/06/27 09:31:02;;;;;;;;;;;;;;;27.99;42.54;101667.91;5026690;28;19924;-74
2022/06/27 09:33:31;;;;;;;;;;;;;;;27.86;42.47;101661.34;5027965;28;19928;-72
2022/06/27 09:35:57;;;;;;;;;;;;;;;27.52;42.90;101666.75;5028539;28;20062;-73
2022/06/27 09:38:23;;;;;;;;;;;;;;;28.02;41.38;101665.31;5024968;28;20064;-75
2022/06/27 09:40:48;;;;;;;;;;;;;;;28.05;41.42;101652.81;5026353;28;19921;-73
2022/06/27 09:43:16;;;;;;;;;;;;;;;28.31;40.98;101648.13;5031627;28;19931;-73
2022/06/27 09:45:42;;;;;;;;;;;;;;;28.20;41.71;101655.94;5027588;28;19926;-73
2022/06/27 09:48:08;;;;;;;;;;;;;;;28.18;41.63;101658.19;5032492;28;19917;-75
2022/06/27 09:50:35;;;;;;;;;;;;;;;28.22;41.12;101650.06;5029276;28;19947;-73
2022/06/27 09:53:01;;;;;;;;;;;;;;;28.24;41.59;101664.38;5029992;28;19940;-74
2022/06/27 09:55:27;;;;;;;;;;;;;;;28.19;41.00;101687.47;5031746;28;19928;-74
2022/06/27 09:57:53;;;;;;;;;;;;;;;27.90;40.93;101695.50;5031666;28;19944;-73
2022/06/27 10:00:20;;;;;;;;;;;;;;;28.29;40.50;101675.28;5016208;28;20218;-73
2022/06/27 10:02:46;;;;;;;;;;;;;;;28.36;40.59;101681.94;5031501;28;20064;-74
2022/06/27 10:05:13;;;;;;;;;;;;;;;28.21;41.42;101667.78;5036487;28;19996;-73
2022/06/27 10:07:39;;;;;;;;;;;;;;;28.26;40.60;101679.53;5031058;28;19929;-72
2022/06/27 10:10:05;;;;;;;;;;;;;;;28.44;40.26;101677.59;5035826;28;20404;-73
2022/06/27 10:12:32;;;;;;;;;;;;;;;28.43;40.43;101673.16;5032539;28;20361;-71
2022/06/27 10:15:10;;;;;;;;;;;;;;;28.46;40.70;101681.63;5034676;28;19925;-73
2022/06/27 10:17:37;;;;;;;;;;;;;;;28.31;40.43;101692.34;5031837;28;19948;-71
2022/06/27 10:20:06;;;;;;;;;;;;;;;27.96;40.63;101696.19;5034899;28;20393;-72
2022/06/27 10:22:32;;;;;;;;;;;;;;;28.17;41.04;101686.97;5033972;28;19994;-72
2022/06/27 10:25:17;;;;;;;;;;;;;;;27.91;41.28;101693.56;5034067;28;19925;-72
2022/06/27 10:27:42;;;;;;;;;;;;;;;28.31;40.64;101693.16;5012551;28;19928;-72
2022/06/27 10:30:26;;;;;;;;;;;;;;;28.53;40.33;101683.91;5029707;28;19917;-71
2022/06/27 10:32:52;;;;;;;;;;;;;;;28.61;40.22;101683.97;5033718;28;19925;-72
2022/06/27 10:35:17;;;;;;;;;;;;;;;28.15;40.66;101680.94;5029729;28;19971;-72
2022/06/27 10:37:43;;;;;;;;;;;;;;;28.31;39.96;101675.75;5033018;28;20313;-71
2022/06/27 10:40:20;;;;;;;;;;;;;;;28.46;40.14;101667.00;5030454;28;20408;-71
2022/06/27 10:42:49;;;;;;;;;;;;;;;28.25;39.61;101654.94;5030502;28;20024;-71
2022/06/27 10:45:20;;;;;;;;;;;;;;;28.28;38.06;101651.53;5019960;28;19917;-72
2022/06/27 10:47:46;;;;;;;;;;;;;;;28.17;39.70;101651.03;5016075;28;20175;-72
2022/06/27 10:50:13;;;;;;;;;;;;;;;28.44;39.00;101653.47;5033856;28;19925;-72
2022/06/27 10:52:38;;;;;;;;;;;;;;;28.53;39.98;101653.50;5035637;28;20020;-72
2022/06/27 10:55:20;;;;;;;;;;;;;;;28.41;40.09;101661.63;5032181;28;20016;-71
2022/06/27 10:57:46;;;;;;;;;;;;;;;28.40;38.87;101666.34;5030837;28;19974;-71
2022/06/27 11:00:11;;;;;;;;;;;;;;;28.70;38.63;101664.56;5029819;28;19925;-73
2022/06/27 11:02:38;;;;;;;;;;;;;;;28.57;38.17;101658.09;5032900;28;20340;-72
2022/06/27 11:05:03;;;;;;;;;;;;;;;28.29;39.23;101647.63;5029280;28;19975;-73
2022/06/27 11:07:29;;;;;;;;;;;;;;;28.64;39.09;101643.75;5034160;28;20424;-73
2022/06/27 11:09:54;;;;;;;;;;;;;;;28.56;39.29;101639.84;5030818;28;20340;-73
2022/06/27 11:12:23;;;;;;;;;;;;;;;28.93;37.59;101641.13;5032583;28;19913;-72
2022/06/27 11:14:49;;;;;;;;;;;;;;;28.60;38.16;101643.59;5017472;28;19921;-73
2022/06/27 11:17:29;;;;;;;;;;;;;;;28.90;37.91;101638.19;5019281;28;19960;-73
2022/06/27 11:20:14;;;;;;;;;;;;;;;29.16;37.58;101631.47;5018131;28;20020;-73
2022/06/27 11:22:40;;;;;;;;;;;;;;;29.07;38.03;101616.81;5020722;28;20407;-73
2022/06/27 11:25:05;;;;;;;;;;;;;;;29.52;36.66;101615.19;5019743;28;19921;-73
2022/06/27 11:27:44;;;;;;;;;;;;;;;29.39;36.74;101613.47;5020579;28;19924;-70
2022/06/27 11:32:53;;;;;;;;;;;;;;;28.31;37.46;101624.06;5026582;28;19948;-72
2022/06/27 11:35:19;;;;;;;;;;;;;;;28.61;35.84;101633.34;5020192;28;19921;-73
2022/06/27 11:37:44;;;;;;;;;;;;;;;28.14;37.66;101637.06;5019514;28;19921;-75
2022/06/27 11:40:09;;;;;;;;;;;;;;;28.82;37.01;101645.34;5024188;28;19925;-73
2022/06/27 11:42:35;;;;;;;;;;;;;;;29.34;35.15;101638.59;5029601;28;20417;-72
2022/06/27 11:45:05;;;;;;;;;;;;;;;28.63;36.71;101633.84;5031762;28;19923;-72
2022/06/27 11:47:32;;;;;;;;;;;;;;;28.95;35.46;101633.31;5032470;28;19951;-75
2022/06/27 11:50:02;;;;;;;;;;;;;;;29.94;35.23;101637.47;5031891;28;19928;-75
2022/06/27 11:52:35;;;;;;;;;;;;;;;29.80;34.09;101639.69;5030962;28;19921;-72
2022/06/27 11:55:26;;;;;;;;;;;;;;;29.99;34.07;101640.06;5032047;28;19921;-76
2022/06/27 11:57:54;;;;;;;;;;;;;;;29.83;33.92;101639.00;5028973;28;20016;-75
2022/06/27 12:00:24;;;;;;;;;;;;;;;29.73;34.07;101654.06;5030100;28;19925;-72
2022/06/27 12:02:58;;;;;;;;;;;;;;;29.81;34.18;101647.66;5029475;28;19995;-73
2022/06/27 12:05:23;;;;;;;;;;;;;;;29.94;34.12;101648.56;5032879;28;19937;-73
2022/06/27 12:08:00;;;;;;;;;;;;;;;29.61;34.61;101639.25;5034080;28;20077;-70
2022/06/27 12:10:39;;;;;;;;;;;;;;;29.46;34.35;101635.91;5031602;28;20296;-70
2022/06/27 12:13:09;;;;;;;;;;;;;;;29.36;34.23;101629.94;5027929;28;19921;-70
2022/06/27 12:15:35;;;;;;;;;;;;;;;29.69;33.68;101619.00;5033756;28;19995;-71
2022/06/27 12:18:01;;;;;;;;;;;;;;;30.01;33.69;101618.34;5030301;28;20024;-71
2022/06/27 12:20:28;;;;;;;;;;;;;;;29.21;34.29;101627.69;5031524;28;19936;-72
2022/06/27 12:22:53;;;;;;;;;;;;;;;29.02;35.09;101621.72;5032084;28;20028;-72
2022/06/27 12:25:19;;;;;;;;;;;;;;;29.54;34.10;101627.91;5032176;28;20000;-71
2022/06/27 12:27:44;;;;;;;;;;;;;;;29.42;34.39;101642.47;5029825;28;19921;-73
2022/06/27 12:30:11;;;;;;;;;;;;;;;29.28;34.62;101648.22;5030958;28;20249;-73
2022/06/27 12:32:36;;;;;;;;;;;;;;;28.70;35.37;101658.25;5030102;28;19924;-72
2022/06/27 12:35:02;;;;;;;;;;;;;;;28.46;35.13;101659.50;5029947;28;20395;-73
2022/06/27 12:37:27;;;;;;;;;;;;;;;28.13;35.49;101644.53;5030120;28;20408;-72
2022/06/27 12:39:52;;;;;;;;;;;;;;;28.70;35.09;101639.66;5030249;28;20329;-77